Time;durP1;ratioP1;P1;durP2;ratioP2;P2;SDS_P1;SDS_P2;PMS_P1;PMS_P2;Temp;Humidity;BMP_temperature;BMP_pressure;BME280_temperature;BME280_humidity;BME280_pressure;Samples;Min_cycle;Max_cycle;Signal;HPM_P1;HPM_P2
2022/06/13 00:03:26;;;;;;;4.10;1.97;;;;;;;15.62;94.31;100736.66;5020169;28;20282;-74
2022/06/13 00:06:30;;;;;;;4.47;2.13;;;;;;;15.62;96.54;100731.41;5023944;28;20788;-74
2022/06/13 00:08:57;;;;;;;2.30;2.10;;;;;;;15.51;94.44;100737.16;5025167;28;20635;-74
2022/06/13 00:11:26;;;;;;;3.47;2.00;;;;;;;15.52;96.22;100732.75;5024495;28;20576;-74
2022/06/13 00:13:54;;;;;;;3.13;2.10;;;;;;;15.55;98.00;100726.47;5020890;28;20258;-74
2022/06/13 00:16:21;;;;;;;2.30;2.10;;;;;;;15.53;96.76;100731.81;5020328;28;20208;-74
2022/06/13 00:22:37;;;;;;;4.27;2.20;;;;;;;15.43;98.46;100720.88;5024595;28;20189;-74
2022/06/13 00:25:03;;;;;;;2.33;2.13;;;;;;;15.43;100.00;100720.03;5024421;28;20212;-74
2022/06/13 00:27:31;;;;;;;2.63;2.13;;;;;;;15.41;99.66;100719.22;5020226;28;20227;-74
2022/06/13 00:29:57;;;;;;;4.93;2.30;;;;;;;15.44;100.00;100716.47;5024919;28;20206;-74
2022/06/13 00:32:24;;;;;;;4.10;2.23;;;;;;;15.31;98.64;100731.94;5022356;28;20679;-74
2022/06/13 00:34:51;;;;;;;3.40;2.07;;;;;;;15.28;99.56;100721.53;5022839;28;20243;-74
2022/06/13 00:37:17;;;;;;;3.57;2.10;;;;;;;15.29;100.00;100723.25;5021139;28;20252;-74
2022/06/13 00:39:45;;;;;;;6.97;2.03;;;;;;;15.17;100.00;100716.75;5020745;28;20205;-74
2022/06/13 00:42:17;;;;;;;3.50;2.63;;;;;;;15.09;100.00;100711.88;5021191;28;20200;-74
2022/06/13 00:45:04;;;;;;;4.83;2.43;;;;;;;15.05;100.00;100712.91;5020055;28;20231;-74
2022/06/13 00:47:31;;;;;;;3.30;2.27;;;;;;;15.09;100.00;100695.22;5018918;28;20227;-74
2022/06/13 00:49:59;;;;;;;2.30;2.10;;;;;;;15.03;100.00;100696.34;5020691;28;20353;-74
2022/06/13 00:52:31;;;;;;;2.60;1.90;;;;;;;14.90;100.00;100696.06;5022303;28;20671;-74
2022/06/13 00:54:59;;;;;;;5.70;2.13;;;;;;;14.82;100.00;100692.03;5020659;28;20227;-74
2022/06/13 00:57:29;;;;;;;3.77;2.50;;;;;;;14.65;100.00;100698.00;5022462;28;20216;-74
2022/06/13 01:00:01;;;;;;;3.33;2.30;;;;;;;14.56;100.00;100694.81;5024746;28;20564;-74
2022/06/13 01:06:15;;;;;;;3.87;2.47;;;;;;;14.54;100.00;100686.13;5018446;28;20691;-74
2022/06/13 01:08:41;;;;;;;3.13;2.23;;;;;;;14.41;100.00;100692.81;5021489;28;20215;-74
2022/06/13 01:11:17;;;;;;;3.30;2.23;;;;;;;14.38;100.00;100685.91;5023265;28;20298;-74
2022/06/13 01:14:08;;;;;;;2.93;2.40;;;;;;;14.37;100.00;100681.59;5022501;28;20493;-74
2022/06/13 01:16:42;;;;;;;4.17;2.53;;;;;;;14.28;100.00;100675.88;5019110;28;20224;-74
2022/06/13 01:19:53;;;;;;;2.40;2.20;;;;;;;14.29;100.00;100686.31;5023816;28;20268;-74
2022/06/13 01:22:50;;;;;;;4.10;2.30;;;;;;;14.19;100.00;100691.09;5012597;28;20687;-74
2022/06/13 01:25:42;;;;;;;3.83;2.27;;;;;;;14.17;100.00;100679.78;5021759;28;20569;-74
2022/06/13 01:28:34;;;;;;;4.73;2.17;;;;;;;14.09;100.00;100688.88;5022235;28;20227;-74
2022/06/13 01:31:13;;;;;;;3.33;2.47;;;;;;;14.06;100.00;100689.84;5020677;28;20206;-74
2022/06/13 01:37:42;;;;;;;2.50;2.30;;;;;;;13.93;100.00;100699.97;5017585;28;20221;-74
2022/06/13 01:40:20;;;;;;;3.03;2.53;;;;;;;14.04;100.00;100698.72;5016511;28;20213;-74
2022/06/13 01:42:57;;;;;;;2.73;2.47;;;;;;;14.11;100.00;100693.16;5022533;28;20306;-74
2022/06/13 01:45:33;;;;;;;3.23;2.53;;;;;;;14.17;100.00;100692.88;5020946;28;20195;-74
2022/06/13 01:48:06;;;;;;;3.40;2.30;;;;;;;14.27;100.00;100685.53;5023914;28;20231;-74
2022/06/13 01:54:28;;;;;;;2.30;2.03;;;;;;;14.26;100.00;100701.31;5020505;28;20234;-74
2022/06/13 01:57:06;;;;;;;2.70;2.23;;;;;;;14.16;100.00;100709.56;5020724;28;20228;-75
2022/06/13 01:59:40;;;;;;;4.20;2.70;;;;;;;14.12;100.00;100715.81;5002080;28;20202;-75
2022/06/13 02:02:11;;;;;;;2.43;1.90;;;;;;;14.13;100.00;100714.06;5003917;28;20211;-75
2022/06/13 02:08:32;;;;;;;2.97;1.93;;;;;;;14.16;97.52;100696.44;5021229;28;20634;-74
2022/06/13 02:11:04;;;;;;;3.63;2.13;;;;;;;14.16;96.33;100695.59;5020784;28;20210;-74
2022/06/13 02:13:38;;;;;;;3.70;1.90;;;;;;;14.10;88.78;100704.53;5020944;28;20270;-74
2022/06/13 02:16:09;;;;;;;3.53;2.27;;;;;;;14.20;93.21;100694.56;5020319;28;20208;-74
2022/06/13 02:18:43;;;;;;;3.27;2.13;;;;;;;14.19;94.05;100691.09;5022952;28;20219;-75
2022/06/13 02:21:13;;;;;;;3.23;2.03;;;;;;;14.15;89.33;100694.72;5019473;28;20708;-74
2022/06/13 02:23:48;;;;;;;2.97;2.20;;;;;;;14.07;89.38;100688.94;5024425;28;20239;-74
2022/06/13 02:26:20;;;;;;;2.23;2.00;;;;;;;14.13;88.70;100691.31;5021175;28;21253;-74
2022/06/13 02:28:52;;;;;;;5.17;2.20;;;;;;;14.12;87.76;100702.69;5023089;28;20759;-75
2022/06/13 02:31:24;;;;;;;3.27;1.57;;;;;;;14.26;95.10;100683.78;5016932;28;20687;-74
2022/06/13 02:33:56;;;;;;;2.47;1.60;;;;;;;14.16;90.33;100696.44;5017949;28;20212;-74
2022/06/13 02:36:30;;;;;;;2.17;1.80;;;;;;;14.13;89.28;100700.97;5021802;28;20196;-74
2022/06/13 02:39:02;;;;;;;2.30;1.70;;;;;;;14.09;87.04;100715.97;5014433;28;20607;-74
2022/06/13 02:41:39;;;;;;;3.53;1.73;;;;;;;14.13;86.99;100716.69;5021525;28;20203;-74
2022/06/13 02:44:09;;;;;;;5.43;1.70;;;;;;;14.17;86.86;100721.72;5024629;28;20283;-76
2022/06/13 02:46:39;;;;;;;4.30;1.87;;;;;;;14.21;88.16;100727.69;5004724;28;20259;-74
2022/06/13 02:49:12;;;;;;;3.30;2.03;;;;;;;14.23;87.77;100732.91;5019963;28;20205;-74
2022/06/13 02:51:43;;;;;;;3.53;1.90;;;;;;;14.27;87.03;100739.75;5022181;28;20204;-74
2022/06/13 02:54:14;;;;;;;3.23;1.70;;;;;;;14.30;87.84;100716.88;5017754;28;20227;-74
2022/06/13 02:59:59;;;;;;;4.97;1.70;;;;;;;14.36;88.09;100745.47;5020329;28;20216;-74
2022/06/13 03:02:36;;;;;;;2.23;1.63;;;;;;;14.37;87.70;100755.06;5017474;28;20700;-75
2022/06/13 03:05:14;;;;;;;2.60;1.50;;;;;;;14.41;88.79;100741.81;5023150;28;20207;-74
2022/06/13 03:07:49;;;;;;;3.93;1.90;;;;;;;14.42;88.70;100738.25;5020949;28;20228;-74
2022/06/13 03:10:21;;;;;;;3.30;1.87;;;;;;;14.40;88.80;100743.56;5020372;28;20199;-74
2022/06/13 03:13:00;;;;;;;2.33;1.60;;;;;;;14.48;91.04;100754.63;5019412;28;20571;-74
2022/06/13 03:15:31;;;;;;;3.13;1.77;;;;;;;14.47;89.95;100742.41;5018810;28;20227;-75
2022/06/13 03:18:03;;;;;;;2.13;1.60;;;;;;;14.47;88.49;100739.78;5019824;28;20259;-74
2022/06/13 03:20:36;;;;;;;2.43;1.63;;;;;;;14.50;89.14;100739.66;5023395;28;20211;-75
2022/06/13 03:23:10;;;;;;;1.90;1.27;;;;;;;14.54;88.57;100729.91;5020917;28;20204;-74
2022/06/13 03:25:43;;;;;;;3.93;1.80;;;;;;;14.56;89.32;100725.44;5024615;28;20199;-74
2022/06/13 03:28:15;;;;;;;3.77;1.63;;;;;;;14.56;88.31;100743.78;5023418;28;20231;-74
2022/06/13 03:30:45;;;;;;;2.43;1.63;;;;;;;14.56;88.79;100754.28;5022905;28;20197;-74
2022/06/13 03:36:18;;;;;;;3.97;1.47;;;;;;;14.63;88.73;100737.41;4983128;28;20296;-74
2022/06/13 03:46:08;;;;;;;3.80;1.70;;;;;;;14.72;88.02;100773.78;4999361;28;20254;-75
2022/06/13 03:48:38;;;;;;;3.63;1.53;;;;;;;14.75;88.76;100778.06;4996625;28;20315;-75
2022/06/13 03:51:12;;;;;;;1.57;1.33;;;;;;;14.80;91.01;100789.22;5012118;28;20568;-74
2022/06/13 03:54:25;;;;;;;3.87;1.60;;;;;;;14.78;88.99;100793.69;5023755;28;20606;-75
2022/06/13 03:57:09;;;;;;;3.73;1.50;;;;;;;14.80;89.59;100791.00;5021186;28;20219;-74
2022/06/13 03:59:42;;;;;;;3.60;1.33;;;;;;;14.82;88.78;100779.50;5019841;28;20202;-74
2022/06/13 04:02:13;;;;;;;4.73;1.50;;;;;;;14.81;87.79;100787.44;5014089;28;20291;-75
2022/06/13 04:04:44;;;;;;;2.60;1.60;;;;;;;14.80;87.83;100797.09;5021043;28;20287;-75
2022/06/13 04:07:10;;;;;;;4.43;1.40;;;;;;;14.76;87.04;100787.66;5020950;28;20852;-75
2022/06/13 04:13:42;;;;;;;5.53;1.40;;;;;;;14.74;88.36;100786.84;5024182;28;20206;-74
2022/06/13 04:16:24;;;;;;;2.30;1.63;;;;;;;14.71;87.61;100787.81;5024121;28;20207;-75
2022/06/13 04:19:08;;;;;;;3.83;1.50;;;;;;;14.74;86.93;100794.72;5021164;28;20429;-75
2022/06/13 04:21:42;;;;;;;3.53;1.70;;;;;;;14.75;86.09;100781.53;5023413;28;20205;-75
2022/06/13 04:24:22;;;;;;;2.23;1.40;;;;;;;14.81;85.55;100785.69;5020347;28;20665;-74
2022/06/13 04:26:54;;;;;;;3.57;1.30;;;;;;;14.88;85.03;100794.13;5016523;28;20227;-75
2022/06/13 04:33:13;;;;;;;2.60;1.30;;;;;;;15.08;84.31;100812.56;5014711;28;20280;-75
2022/06/13 04:35:42;;;;;;;3.20;1.43;;;;;;;15.14;83.57;100817.56;5022498;28;20588;-75
2022/06/13 04:38:11;;;;;;;2.77;1.30;;;;;;;15.25;82.91;100821.47;5015199;28;20230;-75
2022/06/13 04:40:41;;;;;;;3.50;1.40;;;;;;;15.33;82.74;100817.59;5020421;28;20651;-75
2022/06/13 04:43:09;;;;;;;1.57;1.00;;;;;;;15.37;81.94;100813.06;5021128;28;20203;-74
2022/06/13 04:45:53;;;;;;;2.33;1.40;;;;;;;15.44;82.79;100808.41;5019481;28;20241;-74
2022/06/13 04:48:21;;;;;;;3.57;1.50;;;;;;;15.44;80.54;100818.94;5023598;28;20784;-75
2022/06/13 04:58:59;;;;;;;5.17;1.87;;;;;;;15.34;79.97;100808.81;5019550;28;20531;-75
2022/06/13 05:09:04;;;;;;;1.50;1.30;;;;;;;15.19;81.38;100816.50;5007575;28;20662;-75
2022/06/13 05:11:36;;;;;;;2.93;1.13;;;;;;;15.33;80.89;100828.13;5017763;28;20205;-75
2022/06/13 05:14:11;;;;;;;2.20;1.37;;;;;;;15.66;81.08;100834.63;5002686;28;20207;-75
2022/06/13 05:16:49;;;;;;;3.20;1.60;;;;;;;15.84;79.38;100838.25;5018901;28;20232;-74
2022/06/13 05:26:48;;;;;;;4.37;1.37;;;;;;;16.16;78.13;100825.41;4961553;28;20215;-74
2022/06/13 05:29:18;;;;;;;2.03;1.30;;;;;;;16.25;76.60;100828.47;4958113;28;20211;-75
2022/06/13 05:32:05;;;;;;;3.17;1.10;;;;;;;16.22;76.41;100825.13;4960075;28;20218;-75
2022/06/13 05:34:36;;;;;;;3.13;1.47;;;;;;;16.18;76.13;100820.91;5015092;28;20222;-75
2022/06/13 05:37:03;;;;;;;6.87;1.60;;;;;;;16.32;75.12;100834.28;5021857;28;20234;-74
2022/06/13 05:40:19;;;;;;;2.40;1.30;;;;;;;16.56;74.30;100836.69;5020080;28;20209;-74
2022/06/13 05:50:22;;;;;;;2.50;1.40;;;;;;;17.32;71.67;100845.25;4955517;28;20365;-74
2022/06/13 05:52:48;;;;;;;3.77;1.30;;;;;;;17.16;69.96;100839.06;4998902;28;20283;-75
2022/06/13 05:55:14;;;;;;;2.53;1.37;;;;;;;17.09;70.62;100845.56;5021751;28;20229;-75
2022/06/13 05:57:41;;;;;;;1.47;0.90;;;;;;;17.14;69.36;100847.03;5027287;28;20219;-74
2022/06/13 06:00:14;;;;;;;2.13;1.50;;;;;;;17.40;70.24;100845.72;5024347;28;20628;-74
2022/06/13 06:02:42;;;;;;;3.20;1.40;;;;;;;17.61;68.95;100850.81;5023158;28;20204;-74
2022/06/13 06:05:09;;;;;;;5.03;1.70;;;;;;;17.85;68.72;100851.28;5019516;28;20207;-74
2022/06/13 06:07:37;;;;;;;2.80;1.57;;;;;;;17.97;68.47;100855.94;5019785;28;20231;-74
2022/06/13 06:10:04;;;;;;;1.40;1.17;;;;;;;18.06;67.84;100854.59;5021858;28;20208;-74
2022/06/13 06:12:31;;;;;;;3.47;1.43;;;;;;;18.06;68.50;100851.97;5021101;28;20219;-75
2022/06/13 06:14:57;;;;;;;2.53;1.10;;;;;;;18.07;66.67;100856.31;5019951;28;20615;-74
2022/06/13 06:17:23;;;;;;;3.33;1.13;;;;;;;18.14;67.41;100870.03;5018880;28;20226;-74
2022/06/13 06:19:51;;;;;;;7.13;1.33;;;;;;;18.03;66.23;100859.19;5024035;28;20573;-74
2022/06/13 06:22:17;;;;;;;2.60;1.20;;;;;;;17.93;66.28;100858.84;5023076;28;20296;-74
2022/06/13 06:24:44;;;;;;;3.20;1.50;;;;;;;17.82;68.04;100856.75;5020049;28;20200;-75
2022/06/13 06:27:13;;;;;;;4.47;1.77;;;;;;;17.87;67.40;100854.75;5021506;28;20297;-74
2022/06/13 06:29:39;;;;;;;1.90;1.20;;;;;;;17.87;68.56;100849.47;5020233;28;20210;-74
2022/06/13 06:32:06;;;;;;;3.90;1.23;;;;;;;17.92;69.94;100857.13;5020625;28;20200;-74
2022/06/13 06:34:34;;;;;;;3.27;1.20;;;;;;;17.88;68.75;100856.44;5022124;28;20204;-75
2022/06/13 06:37:01;;;;;;;6.33;1.30;;;;;;;17.93;68.46;100859.69;5017876;28;20747;-74
2022/06/13 06:39:28;;;;;;;2.83;1.53;;;;;;;17.94;67.31;100856.13;5016490;28;20209;-75
2022/06/13 06:41:55;;;;;;;1.50;1.10;;;;;;;18.03;67.36;100862.72;5018687;28;20215;-74
2022/06/13 06:44:22;;;;;;;2.53;1.30;;;;;;;18.15;66.58;100866.44;5019504;28;20192;-74
2022/06/13 06:46:48;;;;;;;2.23;1.23;;;;;;;18.13;67.20;100870.97;5017031;28;20632;-75
2022/06/13 06:53:04;;;;;;;3.60;1.40;;;;;;;18.09;65.96;100880.00;5025908;28;20207;-75
2022/06/13 07:01:11;;;;;;;1.93;1.30;;;;;;;18.59;62.73;100891.34;5001744;28;20691;-75
2022/06/13 07:03:38;;;;;;;4.57;1.40;;;;;;;18.59;58.66;100897.50;5021306;28;20258;-75
2022/06/13 07:06:07;;;;;;;3.27;1.10;;;;;;;18.43;58.90;100889.56;5022781;28;20200;-75
2022/06/13 07:08:35;;;;;;;2.90;1.40;;;;;;;18.40;56.12;100892.38;5026038;28;20270;-74
2022/06/13 07:13:43;;;;;;;1.43;1.00;;;;;;;18.51;55.66;100890.00;5028217;28;20482;-75
2022/06/13 07:16:10;;;;;;;2.17;1.03;;;;;;;18.57;55.45;100891.44;5019833;28;20220;-74
2022/06/13 07:18:36;;;;;;;3.63;1.20;;;;;;;18.53;55.75;100898.66;5026096;28;20204;-74
2022/06/13 07:21:03;;;;;;;5.20;1.40;;;;;;;18.59;57.64;100897.50;5022861;28;20208;-75
2022/06/13 07:23:29;;;;;;;3.77;1.13;;;;;;;18.46;56.54;100905.22;5023660;28;20199;-75
2022/06/13 07:25:57;;;;;;;2.80;1.23;;;;;;;18.41;56.32;100909.06;5023304;28;20384;-74
2022/06/13 07:28:24;;;;;;;2.40;1.43;;;;;;;18.45;57.27;100924.66;5023346;28;20263;-75
2022/06/13 07:30:50;;;;;;;3.43;1.30;;;;;;;18.42;57.58;100921.34;5025586;28;20460;-74
2022/06/13 07:33:17;;;;;;;2.50;1.20;;;;;;;18.35;58.39;100918.16;5015322;28;20211;-75
2022/06/13 07:35:44;;;;;;;3.17;1.67;;;;;;;18.25;58.59;100916.97;5006579;28;20701;-74
2022/06/13 07:38:20;;;;;;;3.10;1.10;;;;;;;18.23;59.16;100913.56;5021301;28;20219;-75
2022/06/13 07:40:49;;;;;;;4.53;1.20;;;;;;;18.33;60.35;100906.84;5025216;28;20235;-74
2022/06/13 07:43:27;;;;;;;3.00;1.40;;;;;;;18.42;60.30;100901.06;5026370;28;20207;-74
2022/06/13 07:45:53;;;;;;;4.50;1.30;;;;;;;18.37;61.53;100907.53;5016487;28;20282;-75
2022/06/13 07:48:20;;;;;;;2.87;1.40;;;;;;;18.46;59.51;100914.94;5024083;28;20221;-75
2022/06/13 07:50:46;;;;;;;4.13;1.57;;;;;;;18.49;58.92;100906.88;5024306;28;20204;-75
2022/06/13 07:53:13;;;;;;;2.80;1.30;;;;;;;18.57;58.27;100903.78;5022729;28;20205;-75
2022/06/13 07:55:39;;;;;;;3.53;1.60;;;;;;;18.89;58.06;100907.28;5023805;28;20307;-75
2022/06/13 07:58:07;;;;;;;1.70;1.23;;;;;;;19.14;58.22;100897.97;5025308;28;20238;-75
2022/06/13 08:00:37;;;;;;;4.40;1.70;;;;;;;19.23;58.67;100895.66;5025386;28;20559;-75
2022/06/13 08:03:06;;;;;;;3.30;1.70;;;;;;;19.28;57.24;100876.91;5019180;28;20204;-74
2022/06/13 08:05:32;;;;;;;2.50;1.27;;;;;;;19.45;55.87;100892.63;5021663;28;20207;-75
2022/06/13 08:07:59;;;;;;;1.77;1.20;;;;;;;19.60;52.69;100890.00;5043566;23;20238;-73
2022/06/13 08:10:26;;;;;;;2.03;1.10;;;;;;;19.57;52.16;100896.31;5033505;28;20200;-73
2022/06/13 08:12:53;;;;;;;2.70;1.20;;;;;;;19.52;50.87;100901.00;5040129;28;20203;-73
2022/06/13 08:15:22;;;;;;;3.17;1.33;;;;;;;19.45;50.70;100892.63;5034537;28;20207;-73
2022/06/13 08:17:50;;;;;;;1.97;1.10;;;;;;;19.54;52.00;100885.06;5033680;28;20229;-73
2022/06/13 08:20:16;;;;;;;2.83;1.10;;;;;;;19.88;51.05;100891.84;5025023;28;20676;-73
2022/06/13 08:22:44;;;;;;;1.90;1.20;;;;;;;20.21;49.65;100899.53;5026385;28;20196;-72
2022/06/13 08:25:17;;;;;;;2.93;1.33;;;;;;;19.81;48.35;100891.38;5023887;28;20196;-73
2022/06/13 08:27:44;;;;;;;2.97;1.20;;;;;;;19.72;48.67;100901.63;5026875;28;20216;-73
2022/06/13 08:30:10;;;;;;;1.10;0.90;;;;;;;19.93;48.55;100902.16;5022448;28;20220;-72
2022/06/13 08:32:37;;;;;;;1.97;1.07;;;;;;;20.03;47.98;100898.00;5029167;28;20302;-73
2022/06/13 08:35:05;;;;;;;2.50;1.03;;;;;;;20.28;49.42;100888.53;5022055;28;20203;-73
2022/06/13 08:37:32;;;;;;;3.20;1.33;;;;;;;20.40;48.43;100901.88;5025447;28;20444;-73
2022/06/13 08:39:58;;;;;;;4.13;1.30;;;;;;;20.52;48.69;100905.53;5021653;28;20203;-71
2022/06/13 08:42:31;;;;;;;3.57;1.00;;;;;;;20.58;48.58;100899.84;5027970;28;20206;-72
2022/06/13 08:45:03;;;;;;;2.63;1.13;;;;;;;20.75;46.81;100896.13;5026097;28;20210;-73
2022/06/13 08:47:41;;;;;;;4.90;1.30;;;;;;;20.52;44.33;100908.16;5027953;28;20219;-73
2022/06/13 08:50:28;;;;;;;2.40;1.10;;;;;;;20.31;44.53;100917.47;5011785;28;20208;-73
2022/06/13 08:52:58;;;;;;;3.80;1.00;;;;;;;20.25;43.45;100921.34;5019610;28;20215;-72
2022/06/13 08:55:33;;;;;;;3.13;1.10;;;;;;;20.66;43.79;100923.22;5020940;28;20346;-73
2022/06/13 08:58:11;;;;;;;0.93;0.87;;;;;;;20.78;42.95;100918.94;5023882;28;20758;-72
2022/06/13 09:04:13;;;;;;;1.50;1.00;;;;;;;20.63;42.70;100922.56;5005396;28;20735;-73
2022/06/13 09:07:08;;;;;;;1.43;1.03;;;;;;;20.82;45.30;100925.72;5025391;28;20204;-72
2022/06/13 09:13:30;;;;;;;1.90;0.90;;;;;;;20.84;44.82;100917.69;5021886;28;20222;-72
2022/06/13 09:35:00;;;;;;;2.67;1.10;;;;;;;20.88;44.14;100948.31;5021461;28;20186;-72
2022/06/13 09:37:32;;;;;;;1.37;0.90;;;;;;;20.97;43.39;100956.56;5018553;28;20223;-73
2022/06/13 09:39:59;;;;;;;3.43;1.27;;;;;;;20.91;43.53;100954.28;5021194;28;20222;-73
2022/06/13 09:42:38;;;;;;;3.40;1.00;;;;;;;20.67;42.61;100958.50;5022521;28;20199;-72
2022/06/13 09:49:08;;;;;;;1.60;1.03;;;;;;;20.69;43.84;100938.09;5018443;28;20562;-72
2022/06/13 09:51:51;;;;;;;3.10;1.27;;;;;;;20.85;43.02;100952.03;5020500;28;20743;-72
2022/06/13 09:54:28;;;;;;;2.37;1.03;;;;;;;20.86;42.39;100976.72;5020513;28;20564;-72
2022/06/13 10:00:49;;;;;;;1.90;1.00;;;;;;;20.73;41.31;100977.50;5020378;28;20217;-72
2022/06/13 10:03:26;;;;;;;1.80;0.93;;;;;;;20.59;40.95;100967.75;5023540;28;20628;-72
2022/06/13 10:09:48;;;;;;;2.70;1.40;;;;;;;21.23;40.47;100961.97;5023070;28;20262;-72
2022/06/13 10:16:11;;;;;;;2.17;1.03;;;;;;;21.34;40.74;100967.41;5023047;28;20302;-71
2022/06/13 10:22:38;;;;;;;5.37;1.40;;;;;;;21.30;40.52;100957.97;4999623;28;20207;-73
2022/06/13 10:29:26;;;;;;;2.53;1.30;;;;;;;21.27;38.17;100955.50;5022710;28;20217;-73
2022/06/13 10:32:07;;;;;;;3.17;1.57;;;;;;;21.02;39.73;100955.38;5022435;28;20231;-73
2022/06/13 10:34:58;;;;;;;2.27;1.13;;;;;;;21.16;41.02;100948.25;5024673;28;20207;-72
2022/06/13 10:41:55;;;;;;;3.57;1.23;;;;;;;21.71;40.36;100956.16;5003587;28;20687;-73
2022/06/13 10:59:43;;;;;;;2.90;1.20;;;;;;;21.52;37.41;100938.81;4982591;28;20240;-73
2022/06/13 11:02:24;;;;;;;2.20;1.00;;;;;;;21.63;38.94;100931.94;4980243;28;20239;-71
2022/06/13 11:05:05;;;;;;;2.53;1.30;;;;;;;21.47;36.84;100937.44;5024162;28;20208;-73
2022/06/13 11:07:34;;;;;;;2.27;0.97;;;;;;;21.38;37.98;100934.41;5021328;28;20281;-73
2022/06/13 11:10:01;;;;;;;1.37;1.00;;;;;;;21.51;37.52;100929.19;5024140;28;20208;-73
2022/06/13 11:12:31;;;;;;;2.30;1.00;;;;;;;21.51;36.83;100930.97;5022605;28;20235;-73
2022/06/13 11:48:04;;;;;;;2.53;1.20;;;;;;;22.43;35.22;100935.25;5022414;28;20277;-73
2022/06/13 11:50:33;;;;;;;1.70;1.27;;;;;;;22.24;35.49;100935.69;5026471;28;20226;-73
2022/06/13 11:55:51;;;;;;;3.27;1.17;;;;;;;22.55;36.87;100932.66;5023871;28;20218;-73
2022/06/13 11:58:21;;;;;;;2.05;1.33;;;;;;;22.62;36.34;100941.91;5023618;28;20220;-72
2022/06/13 12:00:51;;;;;;;2.63;1.40;;;;;;;22.25;37.10;100928.53;5025497;28;20204;-72
2022/06/13 12:04:00;;;;;;;5.15;1.20;;;;;;;22.03;37.20;100926.56;5024397;28;20488;-72
2022/06/13 12:06:32;;;;;;;2.50;1.20;;;;;;;22.14;37.06;100916.03;5022835;28;20218;-73
2022/06/13 12:09:05;;;;;;;3.00;1.30;;;;;;;22.28;38.97;100907.13;5026278;28;20236;-73
2022/06/13 12:12:24;;;;;;;1.75;1.02;;;;;;;22.61;38.05;100908.34;5025169;28;20704;-73
2022/06/13 12:14:51;;;;;;;3.83;1.33;;;;;;;22.66;37.88;100901.72;5026152;28;20703;-73
2022/06/13 12:17:20;;;;;;;2.87;1.00;;;;;;;22.49;36.00;100910.06;5021684;28;20227;-73
2022/06/13 12:19:55;;;;;;;1.63;1.17;;;;;;;22.20;37.03;100901.47;5023338;28;20295;-72
2022/06/13 12:22:30;;;;;;;3.90;1.53;;;;;;;21.79;37.81;100910.53;5022906;28;20203;-72
2022/06/13 12:25:05;;;;;;;1.67;1.07;;;;;;;21.62;38.86;100912.53;5022565;28;20203;-72
2022/06/13 12:27:43;;;;;;;5.03;1.50;;;;;;;21.84;38.13;100906.59;5021081;28;20225;-73
2022/06/13 12:33:43;;;;;;;3.03;1.20;;;;;;;21.97;36.59;100911.91;5018594;28;20187;-72
2022/06/13 12:36:28;;;;;;;2.00;1.20;;;;;;;21.98;37.22;100892.38;5028120;28;20222;-73
2022/06/13 12:39:36;;;;;;;2.57;1.30;;;;;;;22.12;37.38;100896.72;5021851;28;20732;-73
2022/06/13 12:42:16;;;;;;;3.80;1.50;;;;;;;22.13;36.26;100911.69;5021037;28;20195;-73
2022/06/13 12:45:08;;;;;;;5.53;1.37;;;;;;;22.12;37.46;100902.03;5025823;28;20464;-73
2022/06/13 12:47:50;;;;;;;2.43;1.63;;;;;;;22.40;37.35;100898.28;5026861;28;20231;-73
2022/06/13 12:54:51;;;;;;;2.43;1.13;;;;;;;23.52;36.58;100902.47;5001996;28;20266;-73
2022/06/13 12:57:49;;;;;;;1.88;1.15;;;;;;;23.40;34.61;100909.56;5018427;28;20239;-73
2022/06/13 13:04:27;;;;;;;2.45;1.40;;;;;;;22.09;36.44;100903.09;5016307;28;20235;-72
2022/06/13 13:06:59;;;;;;;2.53;1.20;;;;;;;22.07;38.44;100894.38;5025652;28;20536;-72
2022/06/13 13:10:01;;;;;;;3.38;1.20;;;;;;;21.98;36.97;100897.69;5025158;28;20722;-73
2022/06/13 13:12:51;;;;;;;2.22;1.20;;;;;;;22.59;37.96;100907.59;5025306;28;20706;-73
2022/06/13 13:15:43;;;;;;;3.15;1.08;;;;;;;22.43;37.45;100899.88;5019128;28;20208;-72
2022/06/13 13:18:23;;;;;;;3.33;1.20;;;;;;;22.45;36.37;100905.94;5025204;28;20220;-73
2022/06/13 13:20:57;;;;;;;4.05;1.30;;;;;;;22.59;37.06;100889.00;5025031;28;20199;-72
2022/06/13 13:23:32;;;;;;;2.97;1.55;;;;;;;22.45;37.67;100896.16;5027142;28;20200;-73
2022/06/13 13:26:10;;;;;;;3.85;1.38;;;;;;;22.23;37.16;100912.75;5020763;28;20211;-72
2022/06/13 13:28:45;;;;;;;1.75;1.05;;;;;;;21.91;36.54;100905.22;5027958;28;20639;-72
2022/06/13 13:31:17;;;;;;;4.00;1.55;;;;;;;21.81;36.70;100908.63;5017171;28;20212;-73
2022/06/13 13:34:01;;;;;;;1.88;1.30;;;;;;;22.04;35.82;100909.66;5024507;28;20239;-73
2022/06/13 13:36:36;;;;;;;2.25;1.10;;;;;;;22.26;36.48;100914.31;5023538;28;20208;-73
2022/06/13 13:39:09;;;;;;;2.80;1.17;;;;;;;22.24;36.91;100910.94;5022307;28;20231;-73
2022/06/13 13:41:44;;;;;;;5.18;1.40;;;;;;;22.27;37.91;100910.75;5021760;28;20203;-73
2022/06/13 13:44:17;;;;;;;2.47;1.45;;;;;;;22.02;37.85;100916.88;5024884;28;20206;-73
2022/06/13 13:46:51;;;;;;;3.28;1.20;;;;;;;21.57;36.94;100921.78;5023359;28;20627;-71
2022/06/13 13:49:25;;;;;;;3.10;1.20;;;;;;;21.31;37.01;100919.03;5021138;28;20282;-71
2022/06/13 13:51:59;;;;;;;2.67;1.27;;;;;;;21.16;36.45;100928.84;5018145;28;20286;-73
2022/06/13 13:54:28;;;;;;;1.30;1.03;;;;;;;21.19;36.55;100920.69;5017638;28;20614;-73
2022/06/13 13:56:58;;;;;;;3.50;1.20;;;;;;;21.42;37.01;100927.09;5020715;28;20651;-73
2022/06/13 13:59:28;;;;;;;1.60;1.20;;;;;;;21.28;35.71;100927.16;5021573;28;22990;-72
2022/06/13 14:02:05;;;;;;;4.00;1.10;;;;;;;21.21;36.52;100924.06;5024199;28;20219;-73
2022/06/13 14:04:42;;;;;;;3.92;1.30;;;;;;;21.25;36.28;100920.28;5022104;28;20196;-73
2022/06/13 14:10:13;;;;;;;3.10;1.30;;;;;;;21.79;37.21;100924.63;4985788;28;20233;-70
2022/06/13 14:12:58;;;;;;;3.03;1.10;;;;;;;21.90;34.58;100927.41;4987602;28;20205;-70
2022/06/13 14:15:35;;;;;;;1.57;0.93;;;;;;;21.65;34.77;100927.38;5001885;28;20732;-70
2022/06/13 14:18:06;;;;;;;2.22;1.20;;;;;;;21.57;35.57;100927.91;4998900;28;20838;-70
2022/06/13 14:20:33;;;;;;;1.40;0.90;;;;;;;21.54;35.97;100925.47;5001052;28;20239;-70
2022/06/13 14:23:02;;;;;;;1.63;1.20;;;;;;;21.54;35.39;100936.91;4994739;28;20205;-70
2022/06/13 14:25:38;;;;;;;4.30;1.33;;;;;;;21.32;34.73;100939.31;4996433;28;20220;-72
2022/06/13 14:28:09;;;;;;;2.57;1.47;;;;;;;21.38;34.78;100937.06;5004627;28;20598;-70
2022/06/13 14:36:09;;;;;;;1.77;1.10;;;;;;;21.78;36.44;100946.84;4999762;28;20216;-70
2022/06/13 14:38:41;;;;;;;1.53;0.97;;;;;;;21.74;36.17;100946.19;4999520;28;20224;-70
2022/06/13 14:41:14;;;;;;;2.43;1.00;;;;;;;21.48;36.10;100949.75;5006822;28;20234;-69
2022/06/13 14:44:05;;;;;;;3.13;1.30;;;;;;;21.58;36.65;100964.09;4996293;28;20246;-70
2022/06/13 14:47:18;;;;;;;2.27;1.40;;;;;;;21.69;35.23;100945.66;4996789;28;20207;-70
2022/06/13 14:49:49;;;;;;;2.23;1.23;;;;;;;21.59;36.02;100962.31;5002516;28;20219;-70
2022/06/13 14:52:19;;;;;;;3.17;1.13;;;;;;;21.63;36.63;100963.78;5005751;28;20211;-70
2022/06/13 14:55:13;;;;;;;3.37;1.20;;;;;;;21.69;37.35;100960.75;4988593;28;20592;-71
2022/06/13 14:57:51;;;;;;;2.33;1.30;;;;;;;21.70;36.86;100967.72;5002319;28;20225;-70
2022/06/13 15:00:25;;;;;;;3.07;1.57;;;;;;;21.62;37.48;100972.69;4991633;28;20705;-70
2022/06/13 15:03:14;;;;;;;3.87;1.17;;;;;;;21.45;37.69;100965.84;5003852;28;20211;-70
2022/06/13 15:06:01;;;;;;;2.67;1.10;;;;;;;21.35;37.86;100973.53;5001597;28;20264;-70
2022/06/13 15:09:03;;;;;;;6.10;1.60;;;;;;;21.81;38.64;100972.31;5001392;28;20205;-70
2022/06/13 15:11:32;;;;;;;2.03;0.97;;;;;;;22.09;38.98;100968.59;4974756;28;20204;-70
2022/06/13 15:13:59;;;;;;;4.32;1.40;;;;;;;22.11;38.46;100986.13;5004444;28;20617;-70
2022/06/13 15:16:30;;;;;;;3.70;1.40;;;;;;;21.85;37.35;100979.97;5003562;28;20204;-70
2022/06/13 15:19:03;;;;;;;3.67;1.20;;;;;;;21.96;37.88;100976.56;5006299;28;20211;-70
2022/06/13 15:21:32;;;;;;;1.80;1.00;;;;;;;22.12;37.04;100992.28;5007398;28;20250;-70
2022/06/13 15:24:07;;;;;;;2.47;1.30;;;;;;;22.11;37.15;100991.44;5008114;28;20219;-70
2022/06/13 15:26:34;;;;;;;2.45;1.35;;;;;;;21.82;38.12;100996.09;5004309;28;20208;-70